BGBWCYMH

Guest
Details From BGBW - Narsarsuaq
To CYMH - Marys Harbour
Flight Number -
Tags generated
Created
Modified
Stats Distance 1,005 nm / 1,861 km
Max Altitude 34,000 ft / 10,363 m
Waypoints 7
Social Downloads 0
Likes 0
Share VATSIM

Download

Looking for another format? Having issues loading an existing format? Contact us
Advertisement - Login to hide

Notes

Basic altitude profile: - Ascent Rate: 2500ft/min - Ascent Speed: 250kts - Cruise Altitude: 35000ft - Cruise Speed: 420kts - Descent Rate: 1500ft/min - Descent Speed: 250kts

Route

BGBW OZN 5E20 YR AR38 CA CYMH

ID Type Via Altitude Latitude Longitude Leg Dist Tot Dist Heading (true) Name
O BGBW APT - 0 ft / 0 m 61.16052˚ -45.42598˚ - 0 nm - Narsarsuaq
OZN NDB - 33,500 ft / 10,211 m 60.05722˚ -43.15972˚ 94 nm 94 nm 134° / 136° PRINS CHRISTIAN SUND NDB
5850N FIX 5E20 (AWY-HI) 34,000 ft / 10,363 m 58.00000˚ -50.00000˚ 244 nm 338 nm 243° / 237° -
LOACH FIX 5E20 (AWY-HI) 34,000 ft / 10,363 m 55.51667˚ -57.01667˚ 274 nm 613 nm 240° / 234° -
YR NDB 5E20 (AWY-HI) 34,000 ft / 10,363 m 53.33833˚ -60.36667˚ 175 nm 789 nm 223° / 220° GOOSE NDB
CA NDB AR38 (AWY-LO) 17,000 ft / 5,182 m 53.70906˚ -57.02100˚ 121 nm 910 nm 78° / 81° CARTWRIGHT NDB
O CYMH APT - 0 ft / 0 m 52.30225˚ -55.84542˚ 94 nm 1005 nm 153° / 154° Marys Harbour

Altitude Profile

Advertisement - Login to hide

Weather


0- 5 10 15 20 25 30 35+ Temperature / ° C

Clouds and Precipitation
Forecast for 2017-12-13 12:00 UTC. Updated 2 hours ago

Ground ~20,000 ft ~40,000 ft Winds

BGBW

Details ICAO BGBW (UAK)
Name Narsarsuaq
Region Greenland
Timezone America/Godthab (UTC-3.0)
Stats Elevation 112 ft / 34 m (AMSL)
Location 61.160516° -45.425976°
Runways 1
Magnetic Variation 22.907° W

METAR

BGBW 130850Z AUTO 24021KT 9999NDV BKN090/// BKN100/// M02/M10 Q1005

Decode

TAF

Not found

Departure Runways

ID Width Length Bearing (true) Bearing (mag) Surface Threshold Offset Overrun Length
07 148 ft / 45 m 5,921 ft / 1,805 m 40.57° 63.48° Concrete 0 ft / 0 m 0 ft / 0 m
25 148 ft / 45 m 5,921 ft / 1,805 m 220.58° 243.49° Concrete 0 ft / 0 m 279 ft / 85 m

CYMH

Details ICAO CYMH (YMH)
Name Marys Harbour
Region Canada
Timezone America/St_Johns (UTC-3.5)
Stats Elevation 38 ft / 12 m (AMSL)
Location 52.302250° -55.845423°
Runways 1
Magnetic Variation 20.304° W

METAR

CYMH 130900Z AUTO 28002KT 9SM OVC040 M12/M15 A3023 RMK SLP238

Decode

TAF

TAF CYMH 130139Z 1302/1304 24005KT P6SM BKN120 RMK FCST BASED ON AUTO OBS. NXT FCST WILL BE ISSUED AT 130945Z

Decode

Destination Runways

ID Width Length Bearing (true) Bearing (mag) Surface Threshold Offset Overrun Length
11 98 ft / 30 m 2,549 ft / 777 m 85.00° 105.30° Gravel 0 ft / 0 m 0 ft / 0 m
29 98 ft / 30 m 2,549 ft / 777 m 265.01° 285.31° Gravel 0 ft / 0 m 0 ft / 0 m

Popular Alternatives